Time;durP1;ratioP1;P1;durP2;ratioP2;P2;SDS_P1;SDS_P2;PMS_P1;PMS_P2;Temp;Humidity;BMP_temperature;BMP_pressure;BME280_temperature;BME280_humidity;BME280_pressure;Samples;Min_cycle;Max_cycle;Signal;HPM_P1;HPM_P2
2023/08/14 00:00:24;;;;;;;;;;;16.00;99.90;;;;;;7325146;19;9421;-83
2023/08/14 00:02:56;;;;;;;;;;;16.00;99.90;;;;;;7325189;19;9481;-84
2023/08/14 00:05:26;;;;;;;;;;;15.90;99.90;;;;;;7326575;19;10217;-83
2023/08/14 00:07:54;;;;;;;;;;;15.90;99.90;;;;;;7326315;19;9234;-83
2023/08/14 00:10:23;;;;;;;;;;;15.80;99.90;;;;;;7325829;19;9526;-84
2023/08/14 00:12:52;;;;;;;;;;;15.80;99.90;;;;;;7326036;19;9485;-83
2023/08/14 00:15:21;;;;;;;;;;;15.80;99.90;;;;;;7325881;19;9485;-83
2023/08/14 00:17:50;;;;;;;;;;;15.70;99.90;;;;;;7325942;19;9246;-84
2023/08/14 00:20:22;;;;;;;;;;;15.70;99.90;;;;;;7328650;19;9534;-84
2023/08/14 00:22:51;;;;;;;;;;;15.70;99.90;;;;;;7325664;19;9475;-84
2023/08/14 00:25:20;;;;;;;;;;;15.70;99.90;;;;;;7325580;19;9326;-84
2023/08/14 00:27:49;;;;;;;;;;;15.70;99.90;;;;;;7325281;19;9591;-84
2023/08/14 00:30:18;;;;;;;;;;;15.70;99.90;;;;;;7325351;19;9177;-84
2023/08/14 00:32:47;;;;;;;;;;;15.70;99.90;;;;;;7325291;19;10411;-83
2023/08/14 00:35:16;;;;;;;;;;;15.70;99.90;;;;;;7324931;19;9189;-83
2023/08/14 00:37:49;;;;;;;;;;;15.70;99.90;;;;;;7325315;19;9265;-84
2023/08/14 00:40:19;;;;;;;;;;;15.70;99.90;;;;;;7322764;19;10482;-83
2023/08/14 00:42:48;;;;;;;;;;;15.70;99.90;;;;;;7324264;19;8944;-83
2023/08/14 00:45:17;;;;;;;;;;;15.60;99.90;;;;;;7325188;19;9236;-83
2023/08/14 00:47:48;;;;;;;;;;;15.60;99.90;;;;;;7325130;19;9597;-83
2023/08/14 00:50:19;;;;;;;;;;;15.50;99.90;;;;;;7325551;19;9457;-83
2023/08/14 00:52:56;;;;;;;;;;;15.50;99.90;;;;;;7325032;19;9461;-83
2023/08/14 00:55:28;;;;;;;;;;;15.50;99.90;;;;;;7325048;19;9472;-83
2023/08/14 00:57:57;;;;;;;;;;;15.50;99.90;;;;;;7324993;19;9209;-83
2023/08/14 01:00:28;;;;;;;;;;;15.60;99.90;;;;;;7323541;19;9181;-83
2023/08/14 01:02:58;;;;;;;;;;;15.50;99.90;;;;;;7324478;19;9592;-83
2023/08/14 01:05:27;;;;;;;;;;;15.50;99.90;;;;;;7324471;19;9634;-84
2023/08/14 01:07:58;;;;;;;;;;;15.60;99.90;;;;;;7324461;19;9157;-83
2023/08/14 01:10:41;;;;;;;;;;;15.60;99.90;;;;;;7324247;19;9652;-84
2023/08/14 01:13:19;;;;;;;;;;;15.50;99.90;;;;;;7324325;19;9200;-84
2023/08/14 01:15:52;;;;;;;;;;;15.50;99.90;;;;;;7324600;19;9509;-84
2023/08/14 01:18:24;;;;;;;;;;;15.50;99.90;;;;;;7325255;19;9177;-83
2023/08/14 01:21:06;;;;;;;;;;;15.50;99.90;;;;;;7324918;19;9084;-84
2023/08/14 01:23:51;;;;;;;;;;;15.50;99.90;;;;;;7324193;19;10587;-84
2023/08/14 01:26:24;;;;;;;;;;;15.40;99.90;;;;;;7323888;19;9198;-83
2023/08/14 01:28:54;;;;;;;;;;;15.40;99.90;;;;;;7323609;19;9526;-83
2023/08/14 01:31:23;;;;;;;;;;;15.40;99.90;;;;;;7323397;19;9269;-83
2023/08/14 01:33:52;;;;;;;;;;;15.40;99.90;;;;;;7323390;19;9260;-83
2023/08/14 01:36:29;;;;;;;;;;;15.40;99.90;;;;;;7323404;19;9483;-84
2023/08/14 01:39:07;;;;;;;;;;;15.40;99.90;;;;;;7322540;19;9173;-84
2023/08/14 01:41:45;;;;;;;;;;;15.40;99.90;;;;;;7319919;19;8999;-83
2023/08/14 01:44:20;;;;;;;;;;;15.40;99.90;;;;;;7323088;19;9482;-83
2023/08/14 01:46:51;;;;;;;;;;;15.40;99.90;;;;;;7323320;19;9157;-84
2023/08/14 01:49:21;;;;;;;;;;;15.40;99.90;;;;;;7323045;19;9178;-84
2023/08/14 01:51:54;;;;;;;;;;;15.40;99.90;;;;;;7323379;19;9193;-84
2023/08/14 01:54:23;;;;;;;;;;;15.30;99.90;;;;;;7322634;19;9209;-83
2023/08/14 01:56:54;;;;;;;;;;;15.30;99.90;;;;;;7323241;19;9185;-83
2023/08/14 01:59:35;;;;;;;;;;;15.30;99.90;;;;;;7322601;19;9276;-84
2023/08/14 02:02:05;;;;;;;;;;;15.30;99.90;;;;;;7319545;19;10568;-83
2023/08/14 02:04:34;;;;;;;;;;;15.30;99.90;;;;;;7322677;19;9209;-84
2023/08/14 02:07:03;;;;;;;;;;;15.30;99.90;;;;;;7322742;19;9292;-84
2023/08/14 02:09:32;;;;;;;;;;;15.40;99.90;;;;;;7322743;19;9198;-84
2023/08/14 02:12:03;;;;;;;;;;;15.40;99.90;;;;;;7322529;19;9483;-84
2023/08/14 02:14:32;;;;;;;;;;;15.40;99.90;;;;;;7322331;19;9287;-84
2023/08/14 02:17:01;;;;;;;;;;;15.40;99.90;;;;;;7322363;19;9709;-84
2023/08/14 02:19:30;;;;;;;;;;;15.30;99.90;;;;;;7324573;19;9218;-84
2023/08/14 02:21:59;;;;;;;;;;;15.30;99.90;;;;;;7320503;19;9449;-84
2023/08/14 02:24:28;;;;;;;;;;;15.30;99.90;;;;;;7322053;19;9078;-84
2023/08/14 02:26:57;;;;;;;;;;;15.30;99.90;;;;;;7321917;19;9332;-84
2023/08/14 02:29:28;;;;;;;;;;;15.30;99.90;;;;;;7321873;19;9212;-84
2023/08/14 02:31:57;;;;;;;;;;;15.30;99.90;;;;;;7321697;19;9275;-84
2023/08/14 02:34:44;;;;;;;;;;;15.20;99.90;;;;;;7322072;19;9182;-84
2023/08/14 02:37:14;;;;;;;;;;;15.20;99.90;;;;;;7321719;19;9491;-83
2023/08/14 02:39:43;;;;;;;;;;;15.20;99.90;;;;;;7320970;19;9403;-83
2023/08/14 02:42:13;;;;;;;;;;;15.20;99.90;;;;;;7319552;19;9107;-84
2023/08/14 02:44:45;;;;;;;;;;;15.20;99.90;;;;;;7321817;19;9469;-83
2023/08/14 02:47:14;;;;;;;;;;;15.20;99.90;;;;;;7321455;19;9451;-84
2023/08/14 02:49:43;;;;;;;;;;;15.10;99.90;;;;;;7321348;19;9170;-84
2023/08/14 02:52:12;;;;;;;;;;;15.00;99.90;;;;;;7324634;19;9296;-84
2023/08/14 02:54:41;;;;;;;;;;;15.00;99.90;;;;;;7328383;19;9286;-84
2023/08/14 02:57:10;;;;;;;;;;;15.00;99.90;;;;;;7328534;19;9445;-84
2023/08/14 02:59:40;;;;;;;;;;;15.00;99.90;;;;;;7328278;19;9358;-84
2023/08/14 03:02:12;;;;;;;;;;;15.00;99.90;;;;;;7326180;19;9329;-84
2023/08/14 03:04:41;;;;;;;;;;;15.00;99.90;;;;;;7328284;19;9284;-84
2023/08/14 03:07:10;;;;;;;;;;;14.90;99.90;;;;;;7328048;19;9319;-83
2023/08/14 03:09:39;;;;;;;;;;;14.90;99.90;;;;;;7327868;19;9188;-84
2023/08/14 03:12:09;;;;;;;;;;;15.00;99.90;;;;;;7327764;19;9328;-83
2023/08/14 03:14:38;;;;;;;;;;;14.90;99.90;;;;;;7327690;19;9229;-83
2023/08/14 03:17:07;;;;;;;;;;;14.90;99.90;;;;;;7327919;19;9675;-84
2023/08/14 03:19:38;;;;;;;;;;;14.90;99.90;;;;;;7330908;19;8944;-84
2023/08/14 03:22:07;;;;;;;;;;;14.90;99.90;;;;;;7325990;19;9135;-83
2023/08/14 03:24:36;;;;;;;;;;;14.80;99.90;;;;;;7327666;19;9279;-84
2023/08/14 03:27:05;;;;;;;;;;;14.80;99.90;;;;;;7328466;19;9192;-84
2023/08/14 03:29:34;;;;;;;;;;;14.90;99.90;;;;;;7331911;19;11140;-84
2023/08/14 03:32:03;;;;;;;;;;;14.90;99.90;;;;;;7329511;19;9181;-85
2023/08/14 03:34:32;;;;;;;;;;;14.90;99.90;;;;;;7327641;19;9355;-84
2023/08/14 03:37:04;;;;;;;;;;;14.90;99.90;;;;;;7327594;19;9618;-84
2023/08/14 03:39:33;;;;;;;;;;;14.90;99.90;;;;;;7326779;19;10153;-84
2023/08/14 03:42:02;;;;;;;;;;;15.00;99.90;;;;;;7325660;19;9087;-84
2023/08/14 03:44:31;;;;;;;;;;;15.10;99.90;;;;;;7327205;19;9216;-85
2023/08/14 03:47:00;;;;;;;;;;;15.10;99.90;;;;;;7326542;19;9217;-84
2023/08/14 03:49:29;;;;;;;;;;;15.10;99.90;;;;;;7326827;19;9273;-84
2023/08/14 03:51:58;;;;;;;;;;;15.00;99.90;;;;;;7326517;19;9510;-84
2023/08/14 03:54:30;;;;;;;;;;;15.00;99.90;;;;;;7326609;19;9461;-84
2023/08/14 03:56:59;;;;;;;;;;;15.00;99.90;;;;;;7326639;19;9542;-84
2023/08/14 03:59:28;;;;;;;;;;;15.00;99.90;;;;;;7326067;19;9429;-84
2023/08/14 04:01:57;;;;;;;;;;;14.90;99.90;;;;;;7324477;19;9120;-84
2023/08/14 04:04:27;;;;;;;;;;;14.90;99.90;;;;;;7325966;19;10568;-83
2023/08/14 04:06:55;;;;;;;;;;;14.80;99.90;;;;;;7326223;19;9159;-84
2023/08/14 04:09:26;;;;;;;;;;;14.70;99.90;;;;;;7326022;19;9137;-83
2023/08/14 04:12:00;;;;;;;;;;;14.70;99.90;;;;;;7325945;19;9585;-84
2023/08/14 04:14:29;;;;;;;;;;;14.70;99.90;;;;;;7325899;19;9475;-84
2023/08/14 04:16:59;;;;;;;;;;;14.70;99.90;;;;;;7325942;19;9247;-84
2023/08/14 04:19:28;;;;;;;;;;;14.70;99.90;;;;;;7328801;19;9225;-84
2023/08/14 04:21:57;;;;;;;;;;;14.60;99.90;;;;;;7324689;19;9193;-84
2023/08/14 04:24:26;;;;;;;;;;;14.60;99.90;;;;;;7325483;19;9114;-84
2023/08/14 04:27:00;;;;;;;;;;;14.60;99.90;;;;;;7325736;19;9177;-84
2023/08/14 04:29:29;;;;;;;;;;;14.60;99.90;;;;;;7325523;19;9191;-84
2023/08/14 04:31:58;;;;;;;;;;;14.60;99.90;;;;;;7325404;19;9655;-84
2023/08/14 04:34:27;;;;;;;;;;;14.60;99.90;;;;;;7325142;19;9276;-84
2023/08/14 04:36:56;;;;;;;;;;;14.60;99.90;;;;;;7324899;19;9171;-83
2023/08/14 04:39:25;;;;;;;;;;;14.60;99.90;;;;;;7324439;19;9308;-84
2023/08/14 04:41:54;;;;;;;;;;;14.60;99.90;;;;;;7324054;19;10158;-84
2023/08/14 04:44:28;;;;;;;;;;;14.70;99.90;;;;;;7325082;19;9461;-84
2023/08/14 04:46:57;;;;;;;;;;;14.70;99.90;;;;;;7324978;19;9169;-84
2023/08/14 04:49:26;;;;;;;;;;;14.70;99.90;;;;;;7324813;19;9340;-83
2023/08/14 04:51:55;;;;;;;;;;;14.80;99.90;;;;;;7325089;19;9249;-83
2023/08/14 04:54:24;;;;;;;;;;;14.80;99.90;;;;;;7325070;19;8945;-83
2023/08/14 04:56:53;;;;;;;;;;;14.80;99.90;;;;;;7324921;19;10706;-84
2023/08/14 04:59:25;;;;;;;;;;;14.70;99.90;;;;;;7324510;19;9210;-84
2023/08/14 05:01:54;;;;;;;;;;;14.80;99.90;;;;;;7323675;19;9462;-84
2023/08/14 05:04:22;;;;;;;;;;;14.80;99.90;;;;;;7324409;19;9420;-83
2023/08/14 05:06:53;;;;;;;;;;;14.90;99.90;;;;;;7324227;19;9215;-84
2023/08/14 05:09:22;;;;;;;;;;;14.90;99.90;;;;;;7323985;19;9153;-84
2023/08/14 05:11:51;;;;;;;;;;;15.00;99.90;;;;;;7324134;19;9264;-84
2023/08/14 05:14:20;;;;;;;;;;;15.00;99.90;;;;;;7321836;19;11259;-84
2023/08/14 05:16:52;;;;;;;;;;;15.00;99.90;;;;;;7323861;19;9482;-84
2023/08/14 05:19:21;;;;;;;;;;;15.10;99.90;;;;;;7326852;19;9465;-84
2023/08/14 05:21:50;;;;;;;;;;;15.20;99.90;;;;;;7323076;19;9504;-84
2023/08/14 05:24:19;;;;;;;;;;;15.30;99.90;;;;;;7323695;19;9492;-84
2023/08/14 05:26:48;;;;;;;;;;;15.30;99.90;;;;;;7323474;19;9826;-84
2023/08/14 05:29:17;;;;;;;;;;;15.30;99.90;;;;;;7323539;19;9292;-84
2023/08/14 05:31:46;;;;;;;;;;;15.30;99.90;;;;;;7323440;19;9287;-84
2023/08/14 05:34:17;;;;;;;;;;;15.30;99.90;;;;;;7323527;19;10547;-83
2023/08/14 05:36:46;;;;;;;;;;;15.30;99.90;;;;;;7323301;19;9234;-84
2023/08/14 05:39:18;;;;;;;;;;;15.40;99.90;;;;;;7324491;19;9192;-84
2023/08/14 05:41:47;;;;;;;;;;;15.40;99.90;;;;;;7325435;19;9475;-84
2023/08/14 05:44:16;;;;;;;;;;;15.50;99.90;;;;;;7324827;19;9215;-84
2023/08/14 05:46:45;;;;;;;;;;;15.50;99.90;;;;;;7323685;19;9196;-84
2023/08/14 05:49:17;;;;;;;;;;;15.60;99.90;;;;;;7323147;19;9193;-84
2023/08/14 05:51:45;;;;;;;;;;;15.70;99.90;;;;;;7322950;19;9504;-84
2023/08/14 05:54:14;;;;;;;;;;;15.80;99.90;;;;;;7322724;19;9460;-84
2023/08/14 05:56:45;;;;;;;;;;;15.90;99.90;;;;;;7322833;19;9189;-84
2023/08/14 05:59:14;;;;;;;;;;;16.00;99.90;;;;;;7322628;19;9197;-84
2023/08/14 06:01:42;;;;;;;;;;;16.10;99.90;;;;;;7322287;19;9162;-84
2023/08/14 06:04:11;;;;;;;;;;;16.10;99.90;;;;;;7322374;19;9208;-84
2023/08/14 06:06:43;;;;;;;;;;;16.20;99.90;;;;;;7322839;19;9231;-84
2023/08/14 06:09:13;;;;;;;;;;;16.20;99.90;;;;;;7322900;19;9280;-84
2023/08/14 06:11:41;;;;;;;;;;;16.30;99.90;;;;;;7322630;19;9472;-84
2023/08/14 06:14:10;;;;;;;;;;;16.30;99.90;;;;;;7322611;19;9219;-84
2023/08/14 06:16:39;;;;;;;;;;;16.40;99.90;;;;;;7322526;19;9136;-84
2023/08/14 06:19:08;;;;;;;;;;;16.40;99.90;;;;;;7325287;19;9198;-83
2023/08/14 06:21:37;;;;;;;;;;;16.50;99.90;;;;;;7321839;19;9192;-84
2023/08/14 06:24:10;;;;;;;;;;;16.50;99.90;;;;;;7322000;19;9460;-84
2023/08/14 06:26:39;;;;;;;;;;;16.60;99.90;;;;;;7326888;19;8996;-83
2023/08/14 06:29:08;;;;;;;;;;;16.70;99.90;;;;;;7329284;19;9197;-84
2023/08/14 06:31:37;;;;;;;;;;;16.70;99.90;;;;;;7329085;19;9121;-84
2023/08/14 06:34:08;;;;;;;;;;;16.80;99.90;;;;;;7329250;19;9299;-84
2023/08/14 06:36:37;;;;;;;;;;;16.80;99.90;;;;;;7329191;19;10149;-83
2023/08/14 06:39:08;;;;;;;;;;;16.90;99.90;;;;;;7328902;19;9569;-84
2023/08/14 06:41:37;;;;;;;;;;;17.00;99.90;;;;;;7328793;19;9252;-83
2023/08/14 06:44:07;;;;;;;;;;;17.00;99.90;;;;;;7328942;19;9237;-84
2023/08/14 06:46:36;;;;;;;;;;;17.10;99.90;;;;;;7328728;19;9130;-84
2023/08/14 06:49:05;;;;;;;;;;;17.20;99.90;;;;;;7328780;19;9482;-83
2023/08/14 06:51:35;;;;;;;;;;;17.30;99.90;;;;;;7328643;19;9497;-84
2023/08/14 06:54:04;;;;;;;;;;;17.30;99.90;;;;;;7328508;19;9215;-83
2023/08/14 06:56:35;;;;;;;;;;;17.30;99.90;;;;;;7328290;19;10333;-83
2023/08/14 06:59:04;;;;;;;;;;;17.40;99.90;;;;;;7328407;19;9265;-84
2023/08/14 07:01:33;;;;;;;;;;;17.40;99.90;;;;;;7328248;19;10207;-83
2023/08/14 07:04:03;;;;;;;;;;;17.50;99.90;;;;;;7328477;19;9161;-84
2023/08/14 07:06:31;;;;;;;;;;;17.50;99.90;;;;;;7328223;19;9213;-84
2023/08/14 07:09:00;;;;;;;;;;;17.50;99.90;;;;;;7328296;19;9200;-83
2023/08/14 07:11:36;;;;;;;;;;;17.60;99.90;;;;;;7327898;19;9231;-84
2023/08/14 07:14:09;;;;;;;;;;;17.60;99.90;;;;;;7327863;19;9214;-84
2023/08/14 07:16:38;;;;;;;;;;;17.60;99.90;;;;;;7327820;19;9579;-84
2023/08/14 07:19:07;;;;;;;;;;;17.70;99.90;;;;;;7331116;19;9695;-84
2023/08/14 07:21:36;;;;;;;;;;;17.70;99.90;;;;;;7327379;19;9213;-84
2023/08/14 07:24:05;;;;;;;;;;;17.90;99.90;;;;;;7325409;19;9173;-84
2023/08/14 07:26:34;;;;;;;;;;;17.90;99.90;;;;;;7327954;19;11012;-84
2023/08/14 07:29:03;;;;;;;;;;;18.00;99.90;;;;;;7327627;19;9117;-84
2023/08/14 07:31:35;;;;;;;;;;;18.10;99.90;;;;;;7327662;19;9193;-84
2023/08/14 07:34:04;;;;;;;;;;;18.20;99.90;;;;;;7327388;19;9229;-84
2023/08/14 07:36:33;;;;;;;;;;;18.30;99.90;;;;;;7327325;19;9522;-83
2023/08/14 07:39:02;;;;;;;;;;;18.40;99.90;;;;;;7325409;19;9262;-83
2023/08/14 07:41:31;;;;;;;;;;;18.60;99.90;;;;;;7325701;19;9948;-84
2023/08/14 07:44:00;;;;;;;;;;;18.80;99.90;;;;;;7324193;19;9223;-83
2023/08/14 07:46:29;;;;;;;;;;;18.90;99.90;;;;;;7326731;19;9451;-83
2023/08/14 07:49:00;;;;;;;;;;;19.10;99.90;;;;;;7326521;19;9293;-83
2023/08/14 07:51:32;;;;;;;;;;;19.20;99.90;;;;;;7327245;19;9129;-84
2023/08/14 07:54:01;;;;;;;;;;;19.50;99.90;;;;;;7327614;19;9258;-83
2023/08/14 07:56:30;;;;;;;;;;;19.80;99.90;;;;;;7327423;19;9267;-83
2023/08/14 07:59:00;;;;;;;;;;;20.10;99.90;;;;;;7326581;19;9175;-83
2023/08/14 08:01:29;;;;;;;;;;;20.50;99.90;;;;;;7326572;19;9300;-83
2023/08/14 08:04:01;;;;;;;;;;;20.90;99.90;;;;;;7324616;19;9213;-83
2023/08/14 08:06:30;;;;;;;;;;;21.30;99.90;;;;;;7326480;19;10182;-83
2023/08/14 08:08:59;;;;;;;;;;;21.60;99.90;;;;;;7326331;19;8944;-83
2023/08/14 08:11:29;;;;;;;;;;;21.90;99.90;;;;;;7325728;19;9112;-83
2023/08/14 08:14:05;;;;;;;;;;;22.20;99.90;;;;;;7325961;19;9178;-83
2023/08/14 08:16:36;;;;;;;;;;;22.40;99.90;;;;;;7325913;19;11189;-84
2023/08/14 08:19:08;;;;;;;;;;;22.60;99.90;;;;;;7329764;19;9225;-83
2023/08/14 08:21:37;;;;;;;;;;;22.70;99.90;;;;;;7325930;19;9173;-83
2023/08/14 08:24:08;;;;;;;;;;;22.50;99.90;;;;;;7323912;19;9306;-83
2023/08/14 08:26:37;;;;;;;;;;;22.40;99.90;;;;;;7326043;19;9435;-82
2023/08/14 08:29:06;;;;;;;;;;;22.40;99.90;;;;;;7325590;19;9506;-83
2023/08/14 08:31:35;;;;;;;;;;;22.40;99.90;;;;;;7325303;19;9208;-83
2023/08/14 08:34:07;;;;;;;;;;;22.60;99.90;;;;;;7325259;19;9260;-83
2023/08/14 08:36:36;;;;;;;;;;;22.60;99.90;;;;;;7323550;19;9189;-83
2023/08/14 08:39:05;;;;;;;;;;;22.60;99.90;;;;;;7324947;19;9482;-83
2023/08/14 08:41:38;;;;;;;;;;;22.60;99.90;;;;;;7325136;19;9633;-83
2023/08/14 08:44:10;;;;;;;;;;;22.60;99.90;;;;;;7323556;19;9181;-83
2023/08/14 08:46:44;;;;;;;;;;;22.50;99.90;;;;;;7325228;19;9202;-83
2023/08/14 08:49:17;;;;;;;;;;;22.50;99.90;;;;;;7324724;19;9240;-83
2023/08/14 08:51:48;;;;;;;;;;;22.50;99.90;;;;;;7325236;19;9268;-83
2023/08/14 08:54:17;;;;;;;;;;;22.50;99.90;;;;;;7325016;19;9116;-83
2023/08/14 08:56:47;;;;;;;;;;;22.40;99.90;;;;;;7325018;19;10675;-83
2023/08/14 08:59:18;;;;;;;;;;;22.50;99.90;;;;;;7324821;19;9217;-83
2023/08/14 09:01:47;;;;;;;;;;;22.60;99.90;;;;;;7324986;19;10273;-83
2023/08/14 09:04:19;;;;;;;;;;;22.60;99.90;;;;;;7322895;19;10309;-83
2023/08/14 09:06:48;;;;;;;;;;;22.60;99.90;;;;;;7324550;19;9196;-83
2023/08/14 09:09:18;;;;;;;;;;;22.60;99.90;;;;;;7324124;19;9268;-83
2023/08/14 09:11:47;;;;;;;;;;;22.70;99.90;;;;;;7322428;19;9473;-82
2023/08/14 09:14:17;;;;;;;;;;;22.70;99.90;;;;;;7323939;19;9188;-83
2023/08/14 09:16:47;;;;;;;;;;;22.60;99.90;;;;;;7325136;19;9498;-82
2023/08/14 09:19:19;;;;;;;;;;;22.60;99.90;;;;;;7323785;19;9194;-82
2023/08/14 09:21:49;;;;;;;;;;;22.60;99.90;;;;;;7323865;19;10441;-83
2023/08/14 09:24:18;;;;;;;;;;;22.70;99.90;;;;;;7322397;19;9131;-82
2023/08/14 09:26:48;;;;;;;;;;;22.70;99.90;;;;;;7323970;19;9446;-83
2023/08/14 09:29:19;;;;;;;;;;;22.70;99.90;;;;;;7323640;19;9310;-83
2023/08/14 09:31:48;;;;;;;;;;;22.60;99.90;;;;;;7323353;19;9352;-83
2023/08/14 09:34:23;;;;;;;;;;;22.50;99.90;;;;;;7323230;19;9272;-82
2023/08/14 09:36:52;;;;;;;;;;;22.70;99.90;;;;;;7323108;19;9231;-83
2023/08/14 09:39:23;;;;;;;;;;;22.80;99.90;;;;;;7322855;19;11394;-82
2023/08/14 09:42:12;;;;;;;;;;;22.90;99.90;;;;;;7321446;19;9321;-82
2023/08/14 09:44:44;;;;;;;;;;;23.10;99.00;;;;;;7321514;19;9192;-83
2023/08/14 09:47:15;;;;;;;;;;;23.10;98.60;;;;;;7323538;19;9171;-83
2023/08/14 09:49:48;;;;;;;;;;;23.20;97.70;;;;;;7323225;19;9170;-82
2023/08/14 09:52:17;;;;;;;;;;;23.20;97.60;;;;;;7323094;19;9206;-82
2023/08/14 09:54:46;;;;;;;;;;;23.30;97.80;;;;;;7322898;19;9192;-82
2023/08/14 09:57:16;;;;;;;;;;;23.30;97.20;;;;;;7322879;19;9153;-83
2023/08/14 09:59:45;;;;;;;;;;;23.40;96.90;;;;;;7323002;19;9242;-83
2023/08/14 10:02:17;;;;;;;;;;;23.50;97.10;;;;;;7323135;19;9208;-82
2023/08/14 10:04:50;;;;;;;;;;;23.60;96.00;;;;;;7323439;19;10798;-83
2023/08/14 10:07:22;;;;;;;;;;;23.60;95.00;;;;;;7323897;19;9107;-83
2023/08/14 10:09:54;;;;;;;;;;;23.70;94.70;;;;;;7323161;19;9150;-83
2023/08/14 10:12:27;;;;;;;;;;;23.70;94.50;;;;;;7322501;19;9193;-83
2023/08/14 10:15:08;;;;;;;;;;;23.70;94.20;;;;;;7322469;19;9177;-82
2023/08/14 10:17:44;;;;;;;;;;;23.80;94.10;;;;;;7325212;19;9455;-82
2023/08/14 10:20:22;;;;;;;;;;;23.90;93.60;;;;;;7322155;19;9466;-83
2023/08/14 10:22:54;;;;;;;;;;;24.00;93.30;;;;;;7321926;19;9276;-83
2023/08/14 10:25:24;;;;;;;;;;;23.90;93.10;;;;;;7322358;19;10192;-83
2023/08/14 10:27:54;;;;;;;;;;;23.90;93.10;;;;;;7322318;19;9128;-82
2023/08/14 10:30:25;;;;;;;;;;;24.00;92.60;;;;;;7322157;19;9257;-83
2023/08/14 10:32:55;;;;;;;;;;;24.10;92.50;;;;;;7322355;19;9332;-82
2023/08/14 10:35:27;;;;;;;;;;;24.10;91.60;;;;;;7321819;19;9217;-83
2023/08/14 10:37:56;;;;;;;;;;;24.20;91.40;;;;;;7321896;19;9161;-83
2023/08/14 10:40:27;;;;;;;;;;;24.20;91.90;;;;;;7320566;19;9564;-82
2023/08/14 10:42:58;;;;;;;;;;;24.40;91.10;;;;;;7320101;19;10357;-82
2023/08/14 10:45:29;;;;;;;;;;;24.50;91.20;;;;;;7321665;19;9208;-83
2023/08/14 10:48:03;;;;;;;;;;;24.40;90.60;;;;;;7321441;19;9507;-83
2023/08/14 10:50:34;;;;;;;;;;;24.40;90.40;;;;;;7322034;19;9260;-83
2023/08/14 10:53:08;;;;;;;;;;;24.50;89.40;;;;;;7321398;19;9336;-83
2023/08/14 10:55:44;;;;;;;;;;;24.50;88.70;;;;;;7321316;19;10249;-83
2023/08/14 10:58:44;;;;;;;;;;;24.60;89.40;;;;;;7321106;19;9194;-83
2023/08/14 11:01:14;;;;;;;;;;;24.70;88.90;;;;;;7321554;19;9177;-83
2023/08/14 11:03:58;;;;;;;;;;;24.80;87.40;;;;;;7320334;19;9193;-84
2023/08/14 11:06:47;;;;;;;;;;;24.80;86.20;;;;;;7320830;19;9417;-83
2023/08/14 11:09:18;;;;;;;;;;;24.80;86.10;;;;;;7320861;19;9173;-83
2023/08/14 11:11:50;;;;;;;;;;;24.70;85.10;;;;;;7321393;19;9498;-83
2023/08/14 11:14:21;;;;;;;;;;;24.50;85.40;;;;;;7327455;19;9489;-83
2023/08/14 11:16:51;;;;;;;;;;;24.30;87.10;;;;;;7329434;19;9182;-84
2023/08/14 11:19:21;;;;;;;;;;;24.40;87.30;;;;;;7327731;19;9248;-83
2023/08/14 11:21:53;;;;;;;;;;;24.50;87.20;;;;;;7327743;19;9223;-83
2023/08/14 11:24:22;;;;;;;;;;;24.50;86.20;;;;;;7326313;19;9182;-84
2023/08/14 11:26:51;;;;;;;;;;;24.70;85.70;;;;;;7327599;19;10160;-83
2023/08/14 11:29:20;;;;;;;;;;;24.70;85.30;;;;;;7327728;19;9193;-83
2023/08/14 11:31:49;;;;;;;;;;;24.60;84.40;;;;;;7327376;19;9264;-84
2023/08/14 11:34:19;;;;;;;;;;;24.30;85.30;;;;;;7327220;19;9211;-83
2023/08/14 11:36:59;;;;;;;;;;;24.20;86.70;;;;;;7327355;19;9261;-83
2023/08/14 11:39:28;;;;;;;;;;;24.20;87.40;;;;;;7326589;19;9270;-83
2023/08/14 11:41:58;;;;;;;;;;;24.10;88.50;;;;;;7326783;19;9582;-83
2023/08/14 11:44:27;;;;;;;;;;;24.00;89.10;;;;;;7325718;19;9485;-83
2023/08/14 11:46:56;;;;;;;;;;;24.00;89.70;;;;;;7326808;19;9263;-83
2023/08/14 11:49:25;;;;;;;;;;;24.10;87.60;;;;;;7327007;19;9317;-83
2023/08/14 11:51:57;;;;;;;;;;;24.30;87.40;;;;;;7327028;19;9198;-84
2023/08/14 11:54:26;;;;;;;;;;;24.40;86.80;;;;;;7326825;19;9051;-83
2023/08/14 11:56:55;;;;;;;;;;;24.40;86.50;;;;;;7326677;19;9189;-83
2023/08/14 11:59:25;;;;;;;;;;;24.50;86.50;;;;;;7326431;19;9169;-83
2023/08/14 12:01:54;;;;;;;;;;;24.40;87.00;;;;;;7326226;19;9204;-83
2023/08/14 12:04:23;;;;;;;;;;;24.20;87.90;;;;;;7325188;19;10803;-83
2023/08/14 12:06:52;;;;;;;;;;;24.20;88.60;;;;;;7326097;19;9231;-83
2023/08/14 12:09:28;;;;;;;;;;;24.10;89.60;;;;;;7326451;19;10201;-83
2023/08/14 12:11:57;;;;;;;;;;;24.10;90.00;;;;;;7327457;19;9284;-84
2023/08/14 12:14:26;;;;;;;;;;;24.20;89.40;;;;;;7328419;19;9307;-84
2023/08/14 12:16:56;;;;;;;;;;;24.40;87.40;;;;;;7328452;19;9204;-84
2023/08/14 12:19:25;;;;;;;;;;;24.30;87.50;;;;;;7325757;19;9218;-84
2023/08/14 12:21:59;;;;;;;;;;;24.30;87.60;;;;;;7325679;19;9189;-84
2023/08/14 12:24:37;;;;;;;;;;;24.20;85.90;;;;;;7323961;19;10663;-84
2023/08/14 12:27:07;;;;;;;;;;;24.20;85.30;;;;;;7325664;19;9317;-84
2023/08/14 12:29:36;;;;;;;;;;;24.10;87.30;;;;;;7325381;19;9268;-83
2023/08/14 12:32:05;;;;;;;;;;;24.10;88.70;;;;;;7325119;19;9239;-83
2023/08/14 12:34:34;;;;;;;;;;;24.20;88.20;;;;;;7325065;19;9190;-84
2023/08/14 12:37:04;;;;;;;;;;;24.30;87.10;;;;;;7325190;19;9547;-83
2023/08/14 12:39:36;;;;;;;;;;;24.40;86.20;;;;;;7324484;19;9286;-83
2023/08/14 12:42:05;;;;;;;;;;;24.50;84.50;;;;;;7324443;19;9230;-83
2023/08/14 12:44:35;;;;;;;;;;;24.60;84.30;;;;;;7324251;19;8944;-83
2023/08/14 12:47:04;;;;;;;;;;;24.60;82.10;;;;;;7324961;19;9589;-83
2023/08/14 12:49:35;;;;;;;;;;;24.60;83.20;;;;;;7325025;19;9161;-83
2023/08/14 12:52:04;;;;;;;;;;;24.50;84.30;;;;;;7324705;19;9442;-84
2023/08/14 12:54:36;;;;;;;;;;;24.50;84.40;;;;;;7324737;19;9231;-83
2023/08/14 12:57:05;;;;;;;;;;;24.40;82.40;;;;;;7324427;19;9184;-84
2023/08/14 12:59:37;;;;;;;;;;;24.20;83.80;;;;;;7324513;19;9189;-83
2023/08/14 13:02:07;;;;;;;;;;;24.20;81.90;;;;;;7324663;19;10202;-83
2023/08/14 13:04:36;;;;;;;;;;;24.40;82.00;;;;;;7323641;19;9187;-84
2023/08/14 13:07:05;;;;;;;;;;;24.50;81.00;;;;;;7324330;19;9322;-83
2023/08/14 13:09:37;;;;;;;;;;;24.70;81.40;;;;;;7324191;19;9498;-83
2023/08/14 13:12:07;;;;;;;;;;;24.90;81.20;;;;;;7324093;19;9482;-83
2023/08/14 13:14:35;;;;;;;;;;;25.00;80.80;;;;;;7324078;19;9218;-84
2023/08/14 13:17:05;;;;;;;;;;;25.10;79.90;;;;;;7327325;19;9643;-83
2023/08/14 13:19:34;;;;;;;;;;;24.90;80.40;;;;;;7323859;19;9264;-84
2023/08/14 13:22:04;;;;;;;;;;;24.80;80.60;;;;;;7323900;19;9122;-84
2023/08/14 13:24:33;;;;;;;;;;;24.70;81.10;;;;;;7323435;19;9622;-84
2023/08/14 13:27:05;;;;;;;;;;;24.70;81.60;;;;;;7323918;19;9334;-84
2023/08/14 13:29:34;;;;;;;;;;;24.50;81.90;;;;;;7323869;19;9181;-84
2023/08/14 13:32:02;;;;;;;;;;;24.70;81.80;;;;;;7323626;19;10354;-83
2023/08/14 13:34:32;;;;;;;;;;;24.80;82.00;;;;;;7323239;19;9185;-83
2023/08/14 13:37:01;;;;;;;;;;;24.80;79.00;;;;;;7321877;19;9484;-84
2023/08/14 13:39:30;;;;;;;;;;;24.90;79.00;;;;;;7322698;19;9177;-84
2023/08/14 13:41:59;;;;;;;;;;;25.00;79.10;;;;;;7322789;19;8944;-83
2023/08/14 13:44:30;;;;;;;;;;;25.20;79.10;;;;;;7322855;19;8944;-84
2023/08/14 13:46:59;;;;;;;;;;;25.40;78.60;;;;;;7323072;19;9560;-84
2023/08/14 13:49:28;;;;;;;;;;;25.40;78.20;;;;;;7323131;19;9236;-84
2023/08/14 13:51:57;;;;;;;;;;;25.30;78.50;;;;;;7322976;19;9121;-84
2023/08/14 13:54:26;;;;;;;;;;;25.20;78.60;;;;;;7322708;19;9095;-84
2023/08/14 13:56:55;;;;;;;;;;;25.30;78.20;;;;;;7322778;19;10813;-84
2023/08/14 13:59:24;;;;;;;;;;;25.40;78.10;;;;;;7322563;19;9188;-84
2023/08/14 14:01:55;;;;;;;;;;;25.50;77.10;;;;;;7323202;19;9428;-84
2023/08/14 14:04:24;;;;;;;;;;;25.50;76.40;;;;;;7322241;19;9185;-83
2023/08/14 14:06:53;;;;;;;;;;;25.60;75.70;;;;;;7322454;19;9509;-84
2023/08/14 14:09:22;;;;;;;;;;;25.40;75.30;;;;;;7322378;19;9196;-84
2023/08/14 14:11:51;;;;;;;;;;;25.30;76.20;;;;;;7322270;19;9367;-84
2023/08/14 14:14:20;;;;;;;;;;;25.30;76.80;;;;;;7322502;19;9152;-84
2023/08/14 14:16:57;;;;;;;;;;;25.10;77.00;;;;;;7326049;19;9231;-84
2023/08/14 14:19:28;;;;;;;;;;;24.90;77.40;;;;;;7324458;19;9319;-83
2023/08/14 14:21:58;;;;;;;;;;;24.90;78.40;;;;;;7324628;19;9200;-84
2023/08/14 14:24:31;;;;;;;;;;;24.70;79.00;;;;;;7322000;19;9226;-84
2023/08/14 14:27:01;;;;;;;;;;;24.60;79.10;;;;;;7322324;19;9480;-84
2023/08/14 14:29:30;;;;;;;;;;;24.60;79.70;;;;;;7322035;19;9219;-84
2023/08/14 14:32:02;;;;;;;;;;;24.50;79.30;;;;;;7322226;19;8944;-84
2023/08/14 14:34:31;;;;;;;;;;;24.50;79.90;;;;;;7322118;19;9179;-84
2023/08/14 14:37:00;;;;;;;;;;;24.50;80.10;;;;;;7322099;19;9293;-84
2023/08/14 14:39:30;;;;;;;;;;;24.60;80.50;;;;;;7321579;19;9270;-83
2023/08/14 14:42:02;;;;;;;;;;;24.80;80.20;;;;;;7319664;19;9432;-84
2023/08/14 14:44:31;;;;;;;;;;;24.90;79.00;;;;;;7321562;19;9188;-84
2023/08/14 14:47:03;;;;;;;;;;;25.00;79.00;;;;;;7324206;19;9474;-84